createdAt,value
2018-09-30T00:01:20.857Z,3.85
2018-09-30T00:07:15.849Z,4.12
2018-09-30T00:13:10.889Z,3.95
2018-09-30T00:19:05.850Z,4.07
2018-09-30T00:25:00.866Z,3.53
2018-09-30T00:30:55.872Z,4.03
2018-09-30T00:36:50.857Z,4
2018-09-30T00:42:45.870Z,3.34
2018-09-30T00:48:40.863Z,3.56
2018-09-30T00:54:35.920Z,3.03
2018-09-30T01:00:30.896Z,3.55
2018-09-30T01:06:25.883Z,2.96
2018-09-30T01:12:20.902Z,3.5
2018-09-30T01:18:15.882Z,3.09
2018-09-30T01:24:10.889Z,2.92
2018-09-30T01:30:05.918Z,3.11
2018-09-30T01:36:00.893Z,3
2018-09-30T01:41:55.948Z,3.43
2018-09-30T01:47:50.930Z,3.02
2018-09-30T01:53:45.905Z,2.94
2018-09-30T01:59:40.914Z,3.2
2018-09-30T02:05:35.950Z,3.07
2018-09-30T02:11:30.972Z,3.91
2018-09-30T02:17:25.953Z,3.9
2018-09-30T02:23:20.944Z,3.95
2018-09-30T02:29:15.993Z,4.07
2018-09-30T02:35:10.993Z,3.73
2018-09-30T02:41:05.955Z,3.99
2018-09-30T02:47:01.006Z,3.67
2018-09-30T02:52:55.993Z,3.7
2018-09-30T02:58:50.960Z,3.07
2018-09-30T03:04:45.975Z,2.87
2018-09-30T03:10:40.978Z,2.3
2018-09-30T03:16:36.030Z,3.08
2018-09-30T03:22:31.049Z,2.86
2018-09-30T03:28:25.980Z,2.5
2018-09-30T03:34:21.006Z,2.62
2018-09-30T03:40:15.987Z,2.8
2018-09-30T03:46:10.997Z,2.7
2018-09-30T03:52:05.995Z,2.83
2018-09-30T03:58:01.015Z,2.66
2018-09-30T04:03:56.044Z,2.98
2018-09-30T04:09:51.074Z,2.52
2018-09-30T04:15:46.020Z,2.9
2018-09-30T04:21:41.047Z,3.64
2018-09-30T04:27:36.074Z,3.63
2018-09-30T04:33:31.094Z,3.49
2018-09-30T04:39:26.035Z,4.09
2018-09-30T04:45:21.052Z,3.73
2018-09-30T04:51:16.047Z,3.16
2018-09-30T04:57:11.054Z,3.56
2018-09-30T05:03:06.056Z,3.33
2018-09-30T05:09:01.065Z,3.56
2018-09-30T05:14:56.047Z,3.66
2018-09-30T05:20:51.058Z,3.42
2018-09-30T05:26:46.064Z,3.56
2018-09-30T05:32:41.060Z,3.5
2018-09-30T05:38:36.082Z,3.7
2018-09-30T05:44:31.126Z,3.44
2018-09-30T05:50:26.079Z,4.06
2018-09-30T05:56:21.136Z,3.42
2018-09-30T06:02:16.122Z,4.16
2018-09-30T06:08:11.110Z,3.61
2018-09-30T06:14:06.266Z,3.62
2018-09-30T06:20:01.114Z,3.73
2018-09-30T06:25:56.094Z,3.86
2018-09-30T06:31:51.202Z,3.44
2018-09-30T06:37:46.154Z,3.85
2018-09-30T06:43:41.126Z,3.74
2018-09-30T06:49:36.119Z,3.64
2018-09-30T06:55:31.117Z,3.01
2018-09-30T07:01:26.173Z,3.21
2018-09-30T07:07:21.130Z,3.21
2018-09-30T07:13:16.141Z,2.95
2018-09-30T07:19:11.200Z,2.97
2018-09-30T07:25:06.154Z,3.11
2018-09-30T07:31:01.157Z,2.76
2018-09-30T07:36:56.155Z,3.17
2018-09-30T07:42:51.155Z,2.99
2018-09-30T07:48:46.151Z,2.67
2018-09-30T07:54:41.165Z,2.67
2018-09-30T08:00:36.177Z,2.35
2018-09-30T08:06:31.237Z,2.83
2018-09-30T08:12:26.215Z,3.21
2018-09-30T08:18:21.179Z,3.08
2018-09-30T08:24:16.392Z,4.25
2018-09-30T08:30:11.198Z,3.8
2018-09-30T08:36:06.202Z,3.39
2018-09-30T08:42:01.187Z,3.43
2018-09-30T08:47:56.200Z,3.51
2018-09-30T08:53:51.246Z,3.74
2018-09-30T08:59:46.247Z,3.87
2018-09-30T09:05:41.247Z,3.42
2018-09-30T09:11:36.233Z,3.19
2018-09-30T09:17:31.286Z,2.91
2018-09-30T09:23:26.267Z,2.68
2018-09-30T09:29:21.244Z,2.47
2018-09-30T09:35:16.296Z,2.23
2018-09-30T09:41:11.263Z,2.34
2018-09-30T09:47:06.398Z,1.51
2018-09-30T09:53:01.270Z,1.36
2018-09-30T09:58:56.359Z,1.51
2018-09-30T10:04:51.266Z,1.29
2018-09-30T10:10:46.314Z,1.68
2018-09-30T10:16:41.279Z,1.3
2018-09-30T10:22:36.319Z,1.39
2018-09-30T10:28:31.320Z,1.41
2018-09-30T10:34:26.298Z,1.99
2018-09-30T10:40:21.318Z,1.49
2018-09-30T10:46:16.305Z,1.8
2018-09-30T10:52:11.341Z,1.76
2018-09-30T10:58:06.336Z,1.83
2018-09-30T11:04:01.329Z,1.91
2018-09-30T11:09:56.455Z,2.01
2018-09-30T11:15:51.417Z,1.79
2018-09-30T11:21:46.358Z,1.71
2018-09-30T11:27:41.333Z,2.13
2018-09-30T11:33:36.344Z,2.22
2018-09-30T11:39:31.355Z,2.29
2018-09-30T11:45:26.417Z,2.25
2018-09-30T11:51:21.363Z,2.3
2018-09-30T11:57:16.384Z,2.08
2018-09-30T12:03:11.416Z,2.58
2018-09-30T12:09:06.396Z,2.15
2018-09-30T12:15:01.427Z,2.19
2018-09-30T12:20:56.430Z,2.2
2018-09-30T12:26:51.424Z,2.59
2018-09-30T12:32:46.428Z,2.56
2018-09-30T12:38:41.449Z,2.6
2018-09-30T12:44:36.412Z,2.37
2018-09-30T12:50:31.420Z,2.5
2018-09-30T12:56:26.426Z,2.71
2018-09-30T13:02:21.425Z,2.41
2018-09-30T13:08:16.467Z,2.17
2018-09-30T13:14:11.494Z,2.3
2018-09-30T13:20:06.440Z,2.23
2018-09-30T13:26:01.433Z,2.46
2018-09-30T13:31:56.443Z,2
2018-09-30T13:37:51.476Z,2.44
2018-09-30T13:43:46.492Z,2.77
2018-09-30T13:49:41.463Z,2.69
2018-09-30T13:55:36.487Z,2.43
2018-09-30T14:01:31.480Z,2.48
2018-09-30T14:07:26.518Z,2.33
2018-09-30T14:13:21.516Z,2.34
2018-09-30T14:19:16.557Z,2.52
2018-09-30T14:25:11.515Z,2.52
2018-09-30T14:31:06.508Z,2.21
2018-09-30T14:37:01.527Z,3.38
2018-09-30T14:42:56.511Z,2.65
2018-09-30T14:48:51.595Z,2.48
2018-09-30T14:54:46.524Z,2.38
2018-09-30T15:00:41.517Z,2.26
2018-09-30T15:06:36.524Z,5.62
2018-09-30T15:12:31.547Z,4.03
2018-09-30T15:18:26.572Z,2.16
2018-09-30T15:24:21.553Z,2.23
2018-09-30T15:30:16.546Z,2.43
2018-09-30T15:36:11.570Z,2.24
2018-09-30T15:42:06.574Z,2.67
2018-09-30T15:48:01.601Z,2.31
2018-09-30T15:53:56.577Z,2.6
2018-09-30T15:59:51.589Z,2.4
2018-09-30T16:05:46.588Z,2.41
2018-09-30T16:11:41.656Z,2.68
2018-09-30T16:17:36.597Z,5.02
2018-09-30T16:23:31.632Z,10.83
2018-09-30T16:29:26.601Z,6.3
2018-09-30T16:35:21.613Z,2.57
2018-09-30T16:41:16.684Z,3.31
2018-09-30T16:47:11.624Z,3.69
2018-09-30T16:53:06.637Z,2.82
2018-09-30T16:59:01.639Z,3.16
2018-09-30T17:04:56.635Z,3.11
2018-09-30T17:10:51.668Z,5.11
2018-09-30T17:16:46.641Z,3.22
2018-09-30T17:22:41.650Z,3.06
2018-09-30T17:28:36.660Z,3.36
2018-09-30T17:34:31.656Z,3.31
2018-09-30T17:40:26.673Z,3.7
2018-09-30T17:46:21.678Z,4.25
2018-09-30T17:52:16.675Z,4.35
2018-09-30T17:58:11.678Z,2.98
2018-09-30T18:04:06.733Z,3.44
2018-09-30T18:10:01.708Z,3.77
2018-09-30T18:15:56.705Z,3.33
2018-09-30T18:21:51.689Z,3.37
2018-09-30T18:27:46.720Z,3.42
2018-09-30T18:33:41.691Z,3.48
2018-09-30T18:39:36.716Z,3.24
2018-09-30T18:45:31.745Z,3.59
2018-09-30T18:51:26.714Z,3.52
2018-09-30T18:57:21.721Z,3.56
2018-09-30T19:03:16.740Z,3.45
2018-09-30T19:09:11.725Z,3.66
2018-09-30T19:15:06.805Z,3.61
2018-09-30T19:21:01.785Z,3.85
2018-09-30T19:26:56.764Z,4.04
2018-09-30T19:32:51.796Z,3.7
2018-09-30T19:38:46.800Z,3.45
2018-09-30T19:44:41.750Z,3.58
2018-09-30T19:50:36.779Z,4.26
2018-09-30T19:56:31.763Z,4.38
2018-09-30T20:02:26.772Z,4.34
2018-09-30T20:08:21.829Z,4.19
2018-09-30T20:14:16.828Z,3.77
2018-09-30T20:20:11.781Z,4.08
2018-09-30T20:26:06.828Z,4.11
2018-09-30T20:32:01.796Z,3.86
2018-09-30T20:37:56.846Z,3.86
2018-09-30T20:43:51.818Z,3.71
2018-09-30T20:49:46.802Z,3.94
2018-09-30T20:55:41.863Z,3.53
2018-09-30T21:01:36.818Z,3.87
2018-09-30T21:07:31.813Z,3.65
2018-09-30T21:13:26.821Z,3.66
2018-09-30T21:19:21.838Z,3.63
2018-09-30T21:25:16.823Z,4.27
2018-09-30T21:31:11.915Z,3.89
2018-09-30T21:37:06.833Z,4.19
2018-09-30T21:43:01.861Z,4.12
2018-09-30T21:48:56.885Z,3.99
2018-09-30T21:54:51.899Z,4.5
2018-09-30T22:00:46.876Z,4.05
2018-09-30T22:06:41.861Z,3.71
2018-09-30T22:12:36.888Z,4.06
2018-09-30T22:18:31.969Z,4.35
2018-09-30T22:24:26.912Z,4.57
2018-09-30T22:30:21.879Z,4.24
2018-09-30T22:36:16.879Z,4.33
2018-09-30T22:42:11.907Z,4.05
2018-09-30T22:48:06.881Z,4.33
2018-09-30T22:54:01.891Z,4.39
2018-09-30T22:59:56.881Z,4.51
2018-09-30T23:05:51.902Z,4.14
2018-09-30T23:11:46.922Z,4.68
2018-09-30T23:17:41.986Z,5.05
2018-09-30T23:23:36.934Z,4.37
2018-09-30T23:29:31.946Z,4.55
2018-09-30T23:35:26.920Z,3.96
2018-09-30T23:41:21.916Z,4.13
2018-09-30T23:47:16.980Z,4.95
2018-09-30T23:53:11.927Z,4.4
2018-09-30T23:59:06.940Z,4.48
